createdAt,value
2023-03-29T00:00:53.181Z,95.86
2023-03-29T00:06:02.392Z,95.81
2023-03-29T00:11:04.982Z,94.65
2023-03-29T00:16:06.929Z,95.09
2023-03-29T00:21:08.713Z,94.91
2023-03-29T00:26:10.533Z,94.51
2023-03-29T00:31:14.689Z,94.06
2023-03-29T00:36:16.556Z,94.33
2023-03-29T00:41:18.375Z,94.06
2023-03-29T00:46:20.364Z,93.78
2023-03-29T00:51:22.256Z,93.49
2023-03-29T00:56:34.968Z,93.35
2023-03-29T01:01:42.736Z,93.43
2023-03-29T01:06:53.868Z,93.11
2023-03-29T01:11:57.163Z,92.91
2023-03-29T01:16:58.999Z,92.87
2023-03-29T01:22:26.884Z,93.00
2023-03-29T01:27:31.725Z,93.00
2023-03-29T01:32:35.517Z,93.16
2023-03-29T01:37:39.700Z,92.41
2023-03-29T01:42:41.409Z,92.46
2023-03-29T01:47:46.303Z,92.58
2023-03-29T01:52:58.797Z,92.80
2023-03-29T01:58:00.855Z,92.53
2023-03-29T02:03:08.122Z,92.51
2023-03-29T02:08:12.007Z,92.72
2023-03-29T02:13:13.860Z,91.75
2023-03-29T02:18:16.348Z,91.73
2023-03-29T02:23:22.893Z,92.04
2023-03-29T02:28:24.768Z,91.90
2023-03-29T02:33:47.474Z,92.04
2023-03-29T02:38:49.424Z,92.06
2023-03-29T02:43:51.391Z,91.49
2023-03-29T02:48:53.274Z,91.36
2023-03-29T02:54:17.466Z,90.76
2023-03-29T02:59:19.487Z,91.14
2023-03-29T03:04:21.538Z,91.09
2023-03-29T03:09:23.522Z,90.69
2023-03-29T03:14:25.390Z,91.13
2023-03-29T03:19:27.281Z,91.10
2023-03-29T03:24:29.235Z,90.86
2023-03-29T03:29:31.043Z,90.74
2023-03-29T03:34:32.857Z,90.18
2023-03-29T03:39:34.689Z,89.81
2023-03-29T03:44:36.509Z,89.74
2023-03-29T03:49:38.427Z,89.46
2023-03-29T03:54:40.286Z,88.87
2023-03-29T03:59:42.322Z,88.27
2023-03-29T04:04:44.149Z,87.90
2023-03-29T04:09:46.024Z,87.68
2023-03-29T04:14:47.913Z,87.03
2023-03-29T04:19:49.767Z,86.77
2023-03-29T04:24:52.287Z,85.78
2023-03-29T04:29:54.215Z,84.70
2023-03-29T04:34:56.002Z,84.22
2023-03-29T04:39:58.140Z,83.94
2023-03-29T04:45:00.021Z,83.10
2023-03-29T04:50:02.509Z,82.35
2023-03-29T04:55:06.208Z,82.32
2023-03-29T05:00:08.224Z,81.67
2023-03-29T05:05:10.506Z,81.16
2023-03-29T05:10:12.413Z,80.89
2023-03-29T05:15:14.746Z,79.71
2023-03-29T05:20:16.793Z,78.88
2023-03-29T05:25:18.685Z,79.02
2023-03-29T05:30:20.617Z,79.10
2023-03-29T05:35:22.454Z,78.68
2023-03-29T05:40:24.488Z,78.27
2023-03-29T05:45:26.358Z,78.10
2023-03-29T05:50:28.118Z,77.42
2023-03-29T05:55:29.923Z,76.64
2023-03-29T06:00:31.762Z,74.55
2023-03-29T06:05:37.023Z,73.91
2023-03-29T06:10:38.849Z,73.19
2023-03-29T06:15:40.666Z,72.05
2023-03-29T06:20:42.429Z,71.75
2023-03-29T06:25:44.771Z,71.50
2023-03-29T06:30:47.650Z,71.50
2023-03-29T06:35:49.824Z,71.40
2023-03-29T06:40:51.710Z,70.71
2023-03-29T06:45:54.052Z,70.81
2023-03-29T06:50:55.908Z,70.25
2023-03-29T06:55:57.754Z,70.32
2023-03-29T07:01:01.170Z,71.35
2023-03-29T07:06:03.793Z,73.11
2023-03-29T07:11:05.946Z,73.76
2023-03-29T07:16:08.913Z,75.65
2023-03-29T07:21:11.319Z,76.90
2023-03-29T07:26:13.095Z,78.07
2023-03-29T07:31:14.826Z,79.53
2023-03-29T07:36:16.749Z,80.14
2023-03-29T07:41:18.594Z,80.35
2023-03-29T07:46:20.441Z,79.57
2023-03-29T07:51:22.541Z,81.89
2023-03-29T07:56:24.471Z,81.13
2023-03-29T08:01:26.431Z,80.30
2023-03-29T08:06:28.255Z,79.38
2023-03-29T08:11:30.076Z,79.69
2023-03-29T08:16:32.137Z,79.64
2023-03-29T08:21:33.948Z,80.34
2023-03-29T08:26:35.687Z,79.99
2023-03-29T08:31:37.501Z,79.91
2023-03-29T08:36:39.296Z,79.55
2023-03-29T08:42:18.270Z,78.75
2023-03-29T08:47:39.359Z,78.33
2023-03-29T08:52:52.730Z,77.47
2023-03-29T08:57:54.518Z,77.71
2023-03-29T09:02:56.342Z,78.93
2023-03-29T09:07:58.267Z,80.20
2023-03-29T09:13:08.186Z,81.48
2023-03-29T09:18:31.589Z,83.26
2023-03-29T09:23:38.244Z,85.14
2023-03-29T09:29:03.012Z,85.37
2023-03-29T09:34:18.198Z,86.06
2023-03-29T09:39:20.335Z,86.78
2023-03-29T09:44:30.886Z,87.92
2023-03-29T09:49:36.526Z,89.34
2023-03-29T09:54:38.549Z,90.47
2023-03-29T09:59:40.335Z,91.08
2023-03-29T10:04:42.417Z,91.91
2023-03-29T10:09:44.763Z,92.81
2023-03-29T10:14:53.070Z,93.99
2023-03-29T10:20:01.479Z,93.80
2023-03-29T10:25:12.644Z,93.64
2023-03-29T10:30:24.551Z,95.34
2023-03-29T10:35:33.635Z,95.88
2023-03-29T10:40:35.581Z,95.85
2023-03-29T10:45:37.584Z,95.99
2023-03-29T10:50:39.451Z,96.86
2023-03-29T10:55:46.948Z,97.43
2023-03-29T11:00:50.752Z,98.68
2023-03-29T11:06:33.859Z,98.73
2023-03-29T11:12:08.512Z,98.58
2023-03-29T11:17:34.935Z,100.00
2023-03-29T11:22:46.119Z,99.91
2023-03-29T11:27:53.951Z,99.72
2023-03-29T11:33:01.505Z,100.00
2023-03-29T11:38:26.486Z,100.00
2023-03-29T11:43:33.804Z,100.00
2023-03-29T11:48:41.971Z,100.00
2023-03-29T11:53:43.633Z,100.00
2023-03-29T11:58:48.607Z,100.00
2023-03-29T12:03:53.396Z,100.00
2023-03-29T12:08:59.611Z,100.00
2023-03-29T12:14:43.105Z,100.00
2023-03-29T12:20:23.412Z,100.00
2023-03-29T12:25:30.871Z,100.00
2023-03-29T12:31:10.272Z,100.00
2023-03-29T12:36:30.880Z,100.00
2023-03-29T12:41:36.174Z,100.00
2023-03-29T12:46:38.106Z,100.00
2023-03-29T12:51:40.581Z,100.00
2023-03-29T12:56:54.759Z,100.00
2023-03-29T13:02:12.813Z,100.00
2023-03-29T13:07:23.550Z,100.00
2023-03-29T13:12:41.964Z,100.00
2023-03-29T13:17:46.711Z,100.00
2023-03-29T13:23:22.222Z,100.00
2023-03-29T13:28:39.940Z,100.00
2023-03-29T13:33:44.773Z,100.00
2023-03-29T13:38:50.316Z,100.00
2023-03-29T13:43:52.949Z,100.00
2023-03-29T13:48:59.231Z,100.00
2023-03-29T13:54:04.073Z,100.00
2023-03-29T13:59:28.015Z,100.00
2023-03-29T14:04:43.793Z,100.00
2023-03-29T14:09:46.011Z,100.00
2023-03-29T14:14:58.782Z,100.00
2023-03-29T14:20:01.488Z,100.00
2023-03-29T14:25:12.387Z,100.00
2023-03-29T14:30:41.695Z,100.00
2023-03-29T14:35:43.719Z,100.00
2023-03-29T14:40:45.642Z,100.00
2023-03-29T14:45:47.508Z,100.00
2023-03-29T14:50:49.324Z,100.00
2023-03-29T14:55:52.279Z,100.00
2023-03-29T15:00:54.229Z,100.00
2023-03-29T15:06:02.904Z,100.00
2023-03-29T15:11:17.265Z,100.00
2023-03-29T15:16:20.172Z,100.00
2023-03-29T15:21:22.099Z,100.00
2023-03-29T15:26:37.646Z,100.00
2023-03-29T15:31:40.570Z,100.00
2023-03-29T15:36:45.530Z,100.00
2023-03-29T15:41:48.848Z,100.00
2023-03-29T15:46:50.673Z,100.00
2023-03-29T15:51:53.194Z,100.00
2023-03-29T15:57:01.779Z,100.00
2023-03-29T16:02:04.579Z,100.00
2023-03-29T16:07:07.734Z,100.00
2023-03-29T16:12:10.226Z,100.00
2023-03-29T16:17:12.062Z,100.00
2023-03-29T16:22:13.973Z,100.00
2023-03-29T16:27:15.796Z,100.00
2023-03-29T16:32:17.721Z,100.00
2023-03-29T16:37:19.696Z,100.00
2023-03-29T16:42:21.508Z,100.00
2023-03-29T16:47:23.410Z,100.00
2023-03-29T16:52:25.215Z,100.00
2023-03-29T16:57:27.117Z,100.00
2023-03-29T17:02:29.136Z,100.00
2023-03-29T17:07:30.952Z,100.00
2023-03-29T17:12:33.017Z,100.00
2023-03-29T17:17:35.265Z,100.00
2023-03-29T17:22:37.506Z,100.00
2023-03-29T17:27:39.309Z,100.00
2023-03-29T17:32:41.233Z,100.00
2023-03-29T17:37:43.104Z,100.00
2023-03-29T17:42:45.171Z,100.00
2023-03-29T17:47:47.041Z,100.00
2023-03-29T17:52:48.919Z,100.00
2023-03-29T17:57:50.710Z,100.00
2023-03-29T18:02:52.805Z,100.00
2023-03-29T18:07:55.256Z,100.00
2023-03-29T18:12:57.147Z,100.00
2023-03-29T18:17:59.114Z,100.00
2023-03-29T18:23:01.000Z,100.00
2023-03-29T18:28:02.920Z,100.00
2023-03-29T18:33:04.766Z,100.00
2023-03-29T18:38:06.724Z,100.00
2023-03-29T18:43:08.607Z,100.00
2023-03-29T18:48:10.694Z,100.00
2023-03-29T18:53:13.520Z,100.00
2023-03-29T18:58:15.476Z,100.00
2023-03-29T19:03:17.734Z,100.00
2023-03-29T19:08:19.708Z,100.00
2023-03-29T19:13:21.527Z,100.00
2023-03-29T19:18:23.402Z,100.00
2023-03-29T19:23:25.399Z,100.00
2023-03-29T19:28:27.202Z,100.00
2023-03-29T19:33:29.284Z,100.00
2023-03-29T19:38:31.227Z,100.00
2023-03-29T19:43:34.446Z,100.00
2023-03-29T19:48:37.482Z,100.00
2023-03-29T19:53:39.366Z,100.00
2023-03-29T19:58:42.112Z,100.00
2023-03-29T20:03:44.106Z,100.00
2023-03-29T20:08:46.166Z,100.00
2023-03-29T20:13:47.964Z,100.00
2023-03-29T20:18:49.809Z,100.00
2023-03-29T20:23:51.676Z,100.00
2023-03-29T20:28:53.510Z,100.00
2023-03-29T20:33:57.550Z,100.00
2023-03-29T20:38:59.670Z,100.00
2023-03-29T20:44:01.492Z,100.00
2023-03-29T20:49:04.421Z,100.00
2023-03-29T20:54:06.300Z,100.00
2023-03-29T20:59:08.367Z,100.00
2023-03-29T21:04:10.339Z,100.00
2023-03-29T21:09:13.056Z,100.00
2023-03-29T21:14:14.898Z,100.00
2023-03-29T21:19:16.986Z,100.00
2023-03-29T21:24:19.109Z,100.00
2023-03-29T21:29:21.036Z,100.00
2023-03-29T21:34:23.053Z,100.00
2023-03-29T21:39:28.309Z,100.00
2023-03-29T21:44:33.177Z,100.00
2023-03-29T21:49:36.301Z,100.00
2023-03-29T21:54:38.194Z,100.00
2023-03-29T21:59:40.191Z,100.00
2023-03-29T22:04:42.040Z,100.00
2023-03-29T22:09:44.030Z,100.00
2023-03-29T22:14:45.891Z,100.00
2023-03-29T22:19:47.785Z,100.00
2023-03-29T22:24:51.530Z,100.00
2023-03-29T22:29:53.342Z,100.00
2023-03-29T22:34:55.195Z,100.00
2023-03-29T22:39:56.995Z,100.00
2023-03-29T22:44:58.894Z,100.00
2023-03-29T22:50:00.748Z,100.00
2023-03-29T22:55:02.611Z,100.00
2023-03-29T23:00:05.522Z,100.00
2023-03-29T23:05:08.088Z,100.00
2023-03-29T23:10:09.910Z,100.00
2023-03-29T23:15:12.281Z,100.00
2023-03-29T23:20:14.195Z,100.00
2023-03-29T23:25:16.269Z,100.00
2023-03-29T23:30:19.484Z,100.00
2023-03-29T23:35:21.439Z,100.00
2023-03-29T23:40:23.430Z,100.00
2023-03-29T23:45:25.936Z,100.00
2023-03-29T23:50:27.972Z,100.00
2023-03-29T23:55:29.846Z,100.00
